Fulmar — WDD3992 — position and weather

sailwx.info

Track history (hours):
 
Tides and Currents Weather Stations Pressure Air Temp Water Temp Dewpoint Dewpoint Depression Visibility Wind Speed Wind Dir Waves Ship Positions

Oceanographic research ship Fulmar (United States)

Owner: NOAA R/V Fulmar, Monterey, CA. More information available from US FCC via Universal Licensing System.

Last reported at 2019-Aug-22 23:58 UTC. Time now 2019-Aug-24 21:56 UTC.
Position N 37°52' W 122°30'.

; draft 2 m.

Type: Ship. MMSI: 367139040.

Date/timePositionNaut miles runAvg speedWind from/ knotsBaromVisibWave heightAir tempDewpointWater temp
2019-Aug-22 23:58N 37°52' W 122°30'0 0.1
2019-Aug-22 23:30N 37°52' W 122°30'0 0.0
2019-Aug-22 23:00N 37°52' W 122°30'0 0.0
2019-Aug-22 22:30N 37°52' W 122°30'0 0.0
2019-Aug-22 22:00N 37°52' W 122°30'0 0.0
2019-Aug-22 21:30N 37°52' W 122°30'3 5.3
2019-Aug-22 21:00N 37°49' W 122°29'815.8
2019-Aug-22 20:30N 37°50' W 122°39'1014.2
2019-Aug-22 19:49N 37°54' W 122°50'514.7
2019-Aug-22 19:29N 37°56' W 122°55'613.4
2019-Aug-22 19:01N 37°59' W 123°03'612.3
2019-Aug-22 18:30N 38°05' W 123°02'611.6
2019-Aug-22 18:00N 38°11' W 123°02'511.0
2019-Aug-22 17:31N 38°17' W 123°02'3 6.6
2019-Aug-22 17:00N 38°20' W 123°03'0 0.0
2019-Aug-21 23:14N 38°20' W 123°03'0 0.0
2019-Aug-21 23:00N 38°20' W 123°03'0 0.0
2019-Aug-21 22:30N 38°20' W 123°03'0 0.0
2019-Aug-21 22:00N 38°20' W 123°03'0 0.0
2019-Aug-21 21:30N 38°20' W 123°03'0 0.0
2019-Aug-21 21:00N 38°20' W 123°03'0 0.0
2019-Aug-21 20:30N 38°20' W 123°03'2 3.6
2019-Aug-21 20:00N 38°18' W 123°03'3 6.2
2019-Aug-21 19:30N 38°21' W 123°05'0 0.5
2019-Aug-21 19:00N 38°21' W 123°05'0 0.6
2019-Aug-21 18:30N 38°21' W 123°05'0 0.6
2019-Aug-21 18:01N 38°21' W 123°06'0 0.6
2019-Aug-21 17:30N 38°21' W 123°06'0 0.6
2019-Aug-21 17:00N 38°21' W 123°06'0 0.7
2019-Aug-21 16:30N 38°20' W 123°06'0 0.5
2019-Aug-21 16:01N 38°21' W 123°06'0 0.5
2019-Aug-21 15:30N 38°20' W 123°06'3 5.4
2019-Aug-21 15:00N 38°19' W 123°03'0 0.0
2019-Aug-21 01:45N 38°20' W 123°03'0 0.0
2019-Aug-21 01:30N 38°20' W 123°03'0 0.0
2019-Aug-21 01:00N 38°20' W 123°03'0 0.0
2019-Aug-21 00:30N 38°20' W 123°03'0 0.7
2019-Aug-21 00:01N 38°20' W 123°03'3 5.0
2019-Aug-20 23:30N 38°17' W 123°04'0 0.6
2019-Aug-20 23:00N 38°18' W 123°05'0 0.5
2019-Aug-20 22:30N 38°17' W 123°05'0 0.4
2019-Aug-20 22:00N 38°18' W 123°05'0 0.3
2019-Aug-20 21:30N 38°18' W 123°05'0 0.4
2019-Aug-20 21:00N 38°17' W 123°05'4 8.9
2019-Aug-20 20:30N 38°14' W 123°01'1 2.6
2019-Aug-20 20:01N 38°13' W 123°00'0 0.3
2019-Aug-20 19:30N 38°13' W 123°00'0 0.4
2019-Aug-20 19:00N 38°13' W 123°01'0 0.4
2019-Aug-20 18:30N 38°13' W 123°01'0 0.4
2019-Aug-20 18:00N 38°13' W 123°01'0 0.4
2019-Aug-20 17:30N 38°14' W 123°01'0 0.4
2019-Aug-20 17:00N 38°13' W 123°01'0 0.6
2019-Aug-20 16:30N 38°14' W 123°02'0 0.5
2019-Aug-20 16:00N 38°13' W 123°02'0 0.4
2019-Aug-20 15:30N 38°14' W 123°02'1 1.3
2019-Aug-20 15:01N 38°14' W 123°01'611.8
2019-Aug-20 14:30N 38°20' W 123°03'0 0.5
2019-Aug-20 14:00N 38°20' W 123°03'0 0.0
2019-Aug-20 13:30N 38°20' W 123°03'0 0.0
2019-Aug-20 13:00N 38°20' W 123°03'0 0.0
2019-Aug-20 12:30N 38°20' W 123°03'0 0.0
2019-Aug-20 12:00N 38°20' W 123°03'0 0.0
2019-Aug-20 11:30N 38°20' W 123°03'0 0.0
2019-Aug-20 11:00N 38°20' W 123°03'0 0.0
2019-Aug-20 10:30N 38°20' W 123°03'0 0.0
2019-Aug-20 10:00N 38°20' W 123°03'0 0.0
2019-Aug-20 09:30N 38°20' W 123°03'0 0.0
2019-Aug-20 09:00N 38°20' W 123°03'0 0.0
2019-Aug-20 08:30N 38°20' W 123°03'0 0.0
2019-Aug-20 08:00N 38°20' W 123°03'0 0.0
2019-Aug-20 07:30N 38°20' W 123°03'0 0.0
2019-Aug-20 07:00N 38°20' W 123°03'0 0.0
2019-Aug-20 06:30N 38°20' W 123°03'0 0.0
2019-Aug-20 06:00N 38°20' W 123°03'0 0.0
2019-Aug-20 05:30N 38°20' W 123°03'0 0.0
2019-Aug-20 05:00N 38°20' W 123°03'0 0.0
2019-Aug-20 04:30N 38°20' W 123°03'0 0.0
2019-Aug-20 04:00N 38°20' W 123°03'0 0.0
2019-Aug-20 03:30N 38°20' W 123°03'0 0.0
2019-Aug-20 03:00N 38°20' W 123°03'0 0.0
2019-Aug-20 02:30N 38°20' W 123°03'0 0.0
2019-Aug-20 02:00N 38°20' W 123°03'0 0.0
2019-Aug-20 01:30N 38°20' W 123°03'0 0.7
2019-Aug-20 01:00N 38°20' W 123°03'3 5.7
2019-Aug-20 00:30N 38°17' W 123°05'0 0.4
2019-Aug-20 00:01N 38°18' W 123°05'0 0.5
2019-Aug-19 23:30N 38°17' W 123°06'0 0.5
2019-Aug-19 23:00N 38°18' W 123°06'0 0.3
2019-Aug-19 22:30N 38°17' W 123°06'1 2.8
2019-Aug-19 22:00N 38°18' W 123°05'0 0.9
2019-Aug-19 21:30N 38°19' W 123°05'0 0.4
2019-Aug-19 21:00N 38°19' W 123°05'0 0.3
2019-Aug-19 20:30N 38°19' W 123°05'0 0.2
2019-Aug-19 20:00N 38°19' W 123°05'0 0.3
2019-Aug-19 19:30N 38°19' W 123°05'0 0.5
2019-Aug-19 19:00N 38°19' W 123°06'0 0.6
2019-Aug-19 18:30N 38°19' W 123°06'0 0.5
2019-Aug-19 18:00N 38°19' W 123°06'0 0.3
2019-Aug-19 17:30N 38°19' W 123°06'0 0.5
2019-Aug-19 17:00N 38°19' W 123°06'0 0.3
2019-Aug-19 16:30N 38°19' W 123°06'0 0.3
2019-Aug-19 16:00N 38°19' W 123°06'2 4.4
2019-Aug-19 15:30N 38°18' W 123°04'2 4.2
2019-Aug-19 14:59N 38°20' W 123°03'0 0.0
2019-Aug-19 14:23N 38°20' W 123°03'0 0.0
2019-Aug-19 13:59N 38°20' W 123°03'0 0.0
2019-Aug-19 13:29N 38°20' W 123°03'0 0.0
2019-Aug-19 12:59N 38°20' W 123°03'0 0.0
2019-Aug-19 12:17N 38°20' W 123°03'0 0.0
2019-Aug-19 11:59N 38°20' W 123°03'0 0.0
2019-Aug-19 11:23N 38°20' W 123°03'0 0.0
2019-Aug-19 10:59N 38°20' W 123°03'0 0.0
2019-Aug-19 10:29N 38°20' W 123°03'0 0.0
2019-Aug-19 09:59N 38°20' W 123°03'0 0.0
2019-Aug-19 09:29N 38°20' W 123°03'0 0.0
2019-Aug-19 08:53N 38°20' W 123°03'0 0.0
2019-Aug-19 08:23N 38°20' W 123°03'0 0.0
2019-Aug-19 07:59N 38°20' W 123°03'0 0.0
2019-Aug-19 07:29N 38°20' W 123°03'0 0.0
2019-Aug-19 06:59N 38°20' W 123°03'0 0.0
2019-Aug-19 06:29N 38°20' W 123°03'0 0.0
2019-Aug-19 05:47N 38°20' W 123°03'0 0.0
2019-Aug-19 05:29N 38°20' W 123°03'0 0.0
2019-Aug-19 04:53N 38°20' W 123°03'0 0.0
2019-Aug-19 04:29N 38°20' W 123°03'0 0.0
2019-Aug-19 03:59N 38°20' W 123°03'0 0.0
2019-Aug-19 03:29N 38°20' W 123°03'0 0.0
2019-Aug-19 02:59N 38°20' W 123°03'0 0.0
2019-Aug-19 02:29N 38°20' W 123°03'0 0.0
2019-Aug-19 01:59N 38°20' W 123°03'0 0.0
2019-Aug-19 01:29N 38°20' W 123°03'0 0.5
2019-Aug-19 01:00N 38°20' W 123°03'5 9.6
2019-Aug-19 00:31N 38°15' W 123°03'917.9
2019-Aug-19 00:00N 38°06' W 123°03'37 4.2
2019-Aug-18 15:09N 37°34' W 122°40'213.5
2019-Aug-18 15:00N 37°33' W 122°38'714.2
2019-Aug-18 14:30N 37°29' W 122°30'2 3.2
2019-Aug-18 14:00N 37°30' W 122°29'0 0.0
2019-Aug-17 02:58N 37°30' W 122°29'0 0.0
2019-Aug-17 02:30N 37°30' W 122°29'0 0.0
2019-Aug-17 02:00N 37°30' W 122°29'0 0.0
2019-Aug-17 01:30N 37°30' W 122°29'0 0.0
2019-Aug-17 01:00N 37°30' W 122°29'0 0.7
2019-Aug-17 00:30N 37°30' W 122°29'713.5
2019-Aug-17 00:00N 37°32' W 122°38'2210.5
2019-Aug-16 21:55N 37°41' W 123°03'20 2.9
2019-Aug-16 14:58N 37°33' W 122°39'714.3
2019-Aug-16 14:30N 37°30' W 122°32'3 5.2
2019-Aug-16 14:00N 37°30' W 122°29'0 0.0
2019-Aug-16 13:30N 37°30' W 122°29'0 0.0
2019-Aug-16 13:00N 37°30' W 122°29'0 0.0
2019-Aug-16 12:30N 37°30' W 122°29'0 0.0
2019-Aug-16 12:00N 37°30' W 122°29'0 0.0
2019-Aug-16 11:30N 37°30' W 122°29'0 0.0
2019-Aug-16 11:00N 37°30' W 122°29'0 0.0
2019-Aug-16 10:30N 37°30' W 122°29'0 0.0
2019-Aug-16 10:00N 37°30' W 122°29'0 0.0
2019-Aug-16 09:30N 37°30' W 122°29'0 0.0
2019-Aug-16 09:00N 37°30' W 122°29'0 0.0
2019-Aug-16 08:30N 37°30' W 122°29'0 0.0
2019-Aug-16 08:01N 37°30' W 122°29'0 0.0
2019-Aug-16 07:31N 37°30' W 122°29'0 0.0
2019-Aug-16 07:00N 37°30' W 122°29'0 0.0
2019-Aug-16 06:31N 37°30' W 122°29'0 0.0
2019-Aug-16 06:00N 37°30' W 122°29'0 0.0
2019-Aug-16 05:30N 37°30' W 122°29'0 0.0
2019-Aug-16 05:00N 37°30' W 122°29'0 0.0
2019-Aug-16 04:31N 37°30' W 122°29'0 0.0
2019-Aug-16 04:00N 37°30' W 122°29'0 0.0
2019-Aug-16 03:30N 37°30' W 122°29'0 0.0
2019-Aug-16 03:00N 37°30' W 122°29'0 0.0
2019-Aug-16 02:30N 37°30' W 122°29'0 0.0
2019-Aug-16 02:01N 37°30' W 122°29'0 0.0
2019-Aug-16 01:30N 37°30' W 122°29'0 0.0
2019-Aug-16 01:00N 37°30' W 122°29'0 0.9
2019-Aug-16 00:30N 37°30' W 122°29'714.1
2019-Aug-16 00:00N 37°23' W 122°28'714.9
2019-Aug-15 23:30N 37°15' W 122°27'  
Track history (hours):
 
Tides and Currents Weather Stations Pressure Air Temp Water Temp Dewpoint Dewpoint Depression Visibility Wind Speed Wind Dir Waves Ship Positions

Oceanographic research ship Fulmar (United States)

Owner: NOAA R/V Fulmar, Monterey, CA. More information available from US FCC via Universal Licensing System.

Last reported at 2019-Aug-22 23:58 UTC. Time now 2019-Aug-24 21:56 UTC.
Position N 37°52' W 122°30'.

; draft 2 m.

Type: Ship. MMSI: 367139040.

Date/timePositionNaut miles runAvg speedWind from/ knotsBaromVisibWave heightAir tempDewpointWater temp
2019-Aug-22 23:58N 37°52' W 122°30'0 0.1
2019-Aug-22 23:30N 37°52' W 122°30'0 0.0
2019-Aug-22 23:00N 37°52' W 122°30'0 0.0
2019-Aug-22 22:30N 37°52' W 122°30'0 0.0
2019-Aug-22 22:00N 37°52' W 122°30'0 0.0
2019-Aug-22 21:30N 37°52' W 122°30'3 5.3
2019-Aug-22 21:00N 37°49' W 122°29'815.8
2019-Aug-22 20:30N 37°50' W 122°39'1014.2
2019-Aug-22 19:49N 37°54' W 122°50'514.7
2019-Aug-22 19:29N 37°56' W 122°55'613.4
2019-Aug-22 19:01N 37°59' W 123°03'612.3
2019-Aug-22 18:30N 38°05' W 123°02'611.6
2019-Aug-22 18:00N 38°11' W 123°02'511.0
2019-Aug-22 17:31N 38°17' W 123°02'3 6.6
2019-Aug-22 17:00N 38°20' W 123°03'0 0.0
2019-Aug-21 23:14N 38°20' W 123°03'0 0.0
2019-Aug-21 23:00N 38°20' W 123°03'0 0.0
2019-Aug-21 22:30N 38°20' W 123°03'0 0.0
2019-Aug-21 22:00N 38°20' W 123°03'0 0.0
2019-Aug-21 21:30N 38°20' W 123°03'0 0.0
2019-Aug-21 21:00N 38°20' W 123°03'0 0.0
2019-Aug-21 20:30N 38°20' W 123°03'2 3.6
2019-Aug-21 20:00N 38°18' W 123°03'3 6.2
2019-Aug-21 19:30N 38°21' W 123°05'0 0.5
2019-Aug-21 19:00N 38°21' W 123°05'0 0.6
2019-Aug-21 18:30N 38°21' W 123°05'0 0.6
2019-Aug-21 18:01N 38°21' W 123°06'0 0.6
2019-Aug-21 17:30N 38°21' W 123°06'0 0.6
2019-Aug-21 17:00N 38°21' W 123°06'0 0.7
2019-Aug-21 16:30N 38°20' W 123°06'0 0.5
2019-Aug-21 16:01N 38°21' W 123°06'0 0.5
2019-Aug-21 15:30N 38°20' W 123°06'3 5.4
2019-Aug-21 15:00N 38°19' W 123°03'0 0.0
2019-Aug-21 01:45N 38°20' W 123°03'0 0.0
2019-Aug-21 01:30N 38°20' W 123°03'0 0.0
2019-Aug-21 01:00N 38°20' W 123°03'0 0.0
2019-Aug-21 00:30N 38°20' W 123°03'0 0.7
2019-Aug-21 00:01N 38°20' W 123°03'3 5.0
2019-Aug-20 23:30N 38°17' W 123°04'0 0.6
2019-Aug-20 23:00N 38°18' W 123°05'0 0.5
2019-Aug-20 22:30N 38°17' W 123°05'0 0.4
2019-Aug-20 22:00N 38°18' W 123°05'0 0.3
2019-Aug-20 21:30N 38°18' W 123°05'0 0.4
2019-Aug-20 21:00N 38°17' W 123°05'4 8.9
2019-Aug-20 20:30N 38°14' W 123°01'1 2.6
2019-Aug-20 20:01N 38°13' W 123°00'0 0.3
2019-Aug-20 19:30N 38°13' W 123°00'0 0.4
2019-Aug-20 19:00N 38°13' W 123°01'0 0.4
2019-Aug-20 18:30N 38°13' W 123°01'0 0.4
2019-Aug-20 18:00N 38°13' W 123°01'0 0.4
2019-Aug-20 17:30N 38°14' W 123°01'0 0.4
2019-Aug-20 17:00N 38°13' W 123°01'0 0.6
2019-Aug-20 16:30N 38°14' W 123°02'0 0.5
2019-Aug-20 16:00N 38°13' W 123°02'0 0.4
2019-Aug-20 15:30N 38°14' W 123°02'1 1.3
2019-Aug-20 15:01N 38°14' W 123°01'611.8
2019-Aug-20 14:30N 38°20' W 123°03'0 0.5
2019-Aug-20 14:00N 38°20' W 123°03'0 0.0
2019-Aug-20 13:30N 38°20' W 123°03'0 0.0
2019-Aug-20 13:00N 38°20' W 123°03'0 0.0
2019-Aug-20 12:30N 38°20' W 123°03'0 0.0
2019-Aug-20 12:00N 38°20' W 123°03'0 0.0
2019-Aug-20 11:30N 38°20' W 123°03'0 0.0
2019-Aug-20 11:00N 38°20' W 123°03'0 0.0
2019-Aug-20 10:30N 38°20' W 123°03'0 0.0
2019-Aug-20 10:00N 38°20' W 123°03'0 0.0
2019-Aug-20 09:30N 38°20' W 123°03'0 0.0
2019-Aug-20 09:00N 38°20' W 123°03'0 0.0
2019-Aug-20 08:30N 38°20' W 123°03'0 0.0
2019-Aug-20 08:00N 38°20' W 123°03'0 0.0
2019-Aug-20 07:30N 38°20' W 123°03'0 0.0
2019-Aug-20 07:00N 38°20' W 123°03'0 0.0
2019-Aug-20 06:30N 38°20' W 123°03'0 0.0
2019-Aug-20 06:00N 38°20' W 123°03'0 0.0
2019-Aug-20 05:30N 38°20' W 123°03'0 0.0
2019-Aug-20 05:00N 38°20' W 123°03'0 0.0
2019-Aug-20 04:30N 38°20' W 123°03'0 0.0
2019-Aug-20 04:00N 38°20' W 123°03'0 0.0
2019-Aug-20 03:30N 38°20' W 123°03'0 0.0
2019-Aug-20 03:00N 38°20' W 123°03'0 0.0
2019-Aug-20 02:30N 38°20' W 123°03'0 0.0
2019-Aug-20 02:00N 38°20' W 123°03'0 0.0
2019-Aug-20 01:30N 38°20' W 123°03'0 0.7
2019-Aug-20 01:00N 38°20' W 123°03'3 5.7
2019-Aug-20 00:30N 38°17' W 123°05'0 0.4
2019-Aug-20 00:01N 38°18' W 123°05'0 0.5
2019-Aug-19 23:30N 38°17' W 123°06'0 0.5
2019-Aug-19 23:00N 38°18' W 123°06'0 0.3
2019-Aug-19 22:30N 38°17' W 123°06'1 2.8
2019-Aug-19 22:00N 38°18' W 123°05'0 0.9
2019-Aug-19 21:30N 38°19' W 123°05'0 0.4
2019-Aug-19 21:00N 38°19' W 123°05'0 0.3
2019-Aug-19 20:30N 38°19' W 123°05'0 0.2
2019-Aug-19 20:00N 38°19' W 123°05'0 0.3
2019-Aug-19 19:30N 38°19' W 123°05'0 0.5
2019-Aug-19 19:00N 38°19' W 123°06'0 0.6
2019-Aug-19 18:30N 38°19' W 123°06'0 0.5
2019-Aug-19 18:00N 38°19' W 123°06'0 0.3
2019-Aug-19 17:30N 38°19' W 123°06'0 0.5
2019-Aug-19 17:00N 38°19' W 123°06'0 0.3
2019-Aug-19 16:30N 38°19' W 123°06'0 0.3
2019-Aug-19 16:00N 38°19' W 123°06'2 4.4
2019-Aug-19 15:30N 38°18' W 123°04'2 4.2
2019-Aug-19 14:59N 38°20' W 123°03'0 0.0
2019-Aug-19 14:23N 38°20' W 123°03'0 0.0
2019-Aug-19 13:59N 38°20' W 123°03'0 0.0
2019-Aug-19 13:29N 38°20' W 123°03'0 0.0
2019-Aug-19 12:59N 38°20' W 123°03'0 0.0
2019-Aug-19 12:17N 38°20' W 123°03'0 0.0
2019-Aug-19 11:59N 38°20' W 123°03'0 0.0
2019-Aug-19 11:23N 38°20' W 123°03'0 0.0
2019-Aug-19 10:59N 38°20' W 123°03'0 0.0
2019-Aug-19 10:29N 38°20' W 123°03'0 0.0
2019-Aug-19 09:59N 38°20' W 123°03'0 0.0
2019-Aug-19 09:29N 38°20' W 123°03'0 0.0
2019-Aug-19 08:53N 38°20' W 123°03'0 0.0
2019-Aug-19 08:23N 38°20' W 123°03'0 0.0
2019-Aug-19 07:59N 38°20' W 123°03'0 0.0
2019-Aug-19 07:29N 38°20' W 123°03'0 0.0
2019-Aug-19 06:59N 38°20' W 123°03'0 0.0
2019-Aug-19 06:29N 38°20' W 123°03'0 0.0
2019-Aug-19 05:47N 38°20' W 123°03'0 0.0
2019-Aug-19 05:29N 38°20' W 123°03'0 0.0
2019-Aug-19 04:53N 38°20' W 123°03'0 0.0
2019-Aug-19 04:29N 38°20' W 123°03'0 0.0
2019-Aug-19 03:59N 38°20' W 123°03'0 0.0
2019-Aug-19 03:29N 38°20' W 123°03'0 0.0
2019-Aug-19 02:59N 38°20' W 123°03'0 0.0
2019-Aug-19 02:29N 38°20' W 123°03'0 0.0
2019-Aug-19 01:59N 38°20' W 123°03'0 0.0
2019-Aug-19 01:29N 38°20' W 123°03'0 0.5
2019-Aug-19 01:00N 38°20' W 123°03'5 9.6
2019-Aug-19 00:31N 38°15' W 123°03'917.9
2019-Aug-19 00:00N 38°06' W 123°03'37 4.2
2019-Aug-18 15:09N 37°34' W 122°40'213.5
2019-Aug-18 15:00N 37°33' W 122°38'714.2
2019-Aug-18 14:30N 37°29' W 122°30'2 3.2
2019-Aug-18 14:00N 37°30' W 122°29'0 0.0
2019-Aug-17 02:58N 37°30' W 122°29'0 0.0
2019-Aug-17 02:30N 37°30' W 122°29'0 0.0
2019-Aug-17 02:00N 37°30' W 122°29'0 0.0
2019-Aug-17 01:30N 37°30' W 122°29'0 0.0
2019-Aug-17 01:00N 37°30' W 122°29'0 0.7
2019-Aug-17 00:30N 37°30' W 122°29'713.5
2019-Aug-17 00:00N 37°32' W 122°38'2210.5
2019-Aug-16 21:55N 37°41' W 123°03'20 2.9
2019-Aug-16 14:58N 37°33' W 122°39'714.3
2019-Aug-16 14:30N 37°30' W 122°32'3 5.2
2019-Aug-16 14:00N 37°30' W 122°29'0 0.0
2019-Aug-16 13:30N 37°30' W 122°29'0 0.0
2019-Aug-16 13:00N 37°30' W 122°29'0 0.0
2019-Aug-16 12:30N 37°30' W 122°29'0 0.0
2019-Aug-16 12:00N 37°30' W 122°29'0 0.0
2019-Aug-16 11:30N 37°30' W 122°29'0 0.0
2019-Aug-16 11:00N 37°30' W 122°29'0 0.0
2019-Aug-16 10:30N 37°30' W 122°29'0 0.0
2019-Aug-16 10:00N 37°30' W 122°29'0 0.0
2019-Aug-16 09:30N 37°30' W 122°29'0 0.0
2019-Aug-16 09:00N 37°30' W 122°29'0 0.0
2019-Aug-16 08:30N 37°30' W 122°29'0 0.0
2019-Aug-16 08:01N 37°30' W 122°29'0 0.0
2019-Aug-16 07:31N 37°30' W 122°29'0 0.0
2019-Aug-16 07:00N 37°30' W 122°29'0 0.0
2019-Aug-16 06:31N 37°30' W 122°29'0 0.0
2019-Aug-16 06:00N 37°30' W 122°29'0 0.0
2019-Aug-16 05:30N 37°30' W 122°29'0 0.0
2019-Aug-16 05:00N 37°30' W 122°29'0 0.0
2019-Aug-16 04:31N 37°30' W 122°29'0 0.0
2019-Aug-16 04:00N 37°30' W 122°29'0 0.0
2019-Aug-16 03:30N 37°30' W 122°29'0 0.0
2019-Aug-16 03:00N 37°30' W 122°29'0 0.0
2019-Aug-16 02:30N 37°30' W 122°29'0 0.0
2019-Aug-16 02:01N 37°30' W 122°29'0 0.0
2019-Aug-16 01:30N 37°30' W 122°29'0 0.0
2019-Aug-16 01:00N 37°30' W 122°29'0 0.9
2019-Aug-16 00:30N 37°30' W 122°29'714.1
2019-Aug-16 00:00N 37°23' W 122°28'714.9
2019-Aug-15 23:30N 37°15' W 122°27'  

Dump ship's entire track history